ADDS METAR Data INFO
IDs: Format: Raw Decoded Include TAF

Data at: 1941 UTC 16 Aug 2017

KLBB 161853Z 36007KT 10SM R171/P600FT FEW250 32/15 A 863 RMK AO2 SLP100 T322150$
KLBB 161753Z 33005KT 10SM FEW250 31/17 A3000 RMK AO2 SLP099 T03110167 10311 20200 51007
KLBB 161653Z 34007KT 10SM FEW250 29/20 A3000 RMK AO2 SLP102 T02890200
KLBB 161553Z 26008KT 10SM FEW250 27/20 A2999 RMK AO2 SLP100 T02720200
KLBB 161453Z 24011KT 10SM FEW020 FEW250 25/19 A2997 RMK AO2 SLP098 T02500194 53010
KLBB 161353Z 24010KT 10SM FEW150 SCT300 23/19 A2996 RMK AO2 SLP095 T02280194
KLBB 161253Z COR 24007KT 10SM FEW 160 SCT250 BKN300 21/19 A2994 RMK AO2 BKN LYR THNSLP087 T02110189
KLBB 161153Z 24007KT 10SM FEW160 SCT250 SCT300 21/19 A2994 RMK AO2 SLP087 70010 T02060189 10239 20206 52009
KLBB 161053Z 26006KT 10SM SCT300 21/19 A2994 RMK AO2 SLP087 T02110189
KLBB 160953Z 21009KT 10SM BKN300 22/19 A2991 RMK AO2 SLP075 BKN LYR THN T02220189
KLBB 160853Z 21011KT 10SM SCT160 BKN300 23/19 A2991 RMK AO2 SLP076 BKN LYR THN T02280194 55006
KLBB 160753Z 20012KT 9SM FEW120 BKN250 23/21 A2991 RMK AO2 SLP075 BR ALQDS BKN LYR THN T02280206
KLBB 160653Z 19008KT 9SM FEW012 FEW120 FEW250 23/21 A2991 RMK AO2 SLP075 BR ALQDS T02280211
KLBB 160553Z 19008G17KT 10SM SCT120 BKN160 BKN250 24/21 A2993 RMK AO2 SLP081 T02390211 10278 20233 402890183 51008
KLBB 160453Z 20012KT 10SM BKN160 BKN250 24/21 A2992 RMK AO2 SLP079 T02390211
KLBB 160353Z 18009KT 10SM FEW050 SCT170 SCT250 24/21 A2993 RMK AO2 SLP084 OCNL LTGIC DSNT N CB DSNT N MOV E T02440211
KLBB 160253Z 18008KT 10SM FEW040 FEW170 SCT260 25/21 A2990 RMK AO2 SLP078 OCNL LTGIC DSNT NW-N CB NW-N MOV E T02500211 53012
KLBB 160153Z 20011KT 10SM FEW034 SCT200 SCT260 26/21 A2988 RMK AO2 SLP069 CB DSNT SW AND NW-N MOV NE T02610206
KLBB 160053Z 21011KT 10SM FEW030 SCT200 SCT260 27/21 A2987 RMK AO2 SLP066 CB DSNT W-NW-N MOV NE T02720206
KLBB 152353Z 21009KT 10SM FEW029 SCT200 SCT260 28/21 A2987 RMK AO2 SLP063 T02780206 10289 20267 57014
KLBB 152253Z 21012KT 9SM FEW028 SCT200 SCT260 27/21 A2988 RMK AO2 SLP069 T02720206
KLBB 152153Z 20012KT 10SM SCT028 BKN190 BKN250 28/21 A2990 RMK AO2 SLP073 T02830206
KLBB 152053Z COR 19013G22KT 10SM FEW028 BKN200 BKN260 27/20 A2991 RMK AO2 SLP079 T02670200 57007
KLBB 151953Z 17018KT 10SM FEW035 SCT180 SCT250 27/19 A2992 RMK AO2 SLP082 MDT CU DSNT NE T02720194
KLBB 151853Z 17018KT 10SM FEW033 SCT180 SCT250 28/19 A2993 RMK AO2 PK WND 16026/1826 SLP082 T02780194
KLBB 151753Z 16022G29KT 10SM FEW033 SCT180 SCT250 27/18 A2993 RMK AO2 PK WND 17029/1749 SLP084 60010 T02720183 10272 20183 51012
KLBB 151653Z 16019G26KT 10SM SCT150 SCT250 27/19 A2993 RMK AO2 PK WND 17026/1652 SLP082 T02670189
KLBB 151553Z 16016KT 10SM FEW032 FEW120 SCT250 26/19 A2991 RMK AO2 SLP074 T02560189
KLBB 151453Z 15011KT 10SM FEW055 SCT110 SCT250 22/18 A2989 RMK AO2 RAE1359 SLP073 SHRA DSNT E-SE P0000 60010 T02170183 58025
KLBB 151353Z 14013KT 9SM -RA FEW055 BKN110 19/18 A2994 RMK AO2 LTG DSNT S TSE42 SLP092 OCNL LTGICCG DSNT E-W CB DSNT E-S MOV E P0006 T01890178
KLBB 151342Z COR 12011KT 5SM RA BR FEW043 OVC110 19/18 A2994 RMK AO2 LTG DSNT SE AND S TSE42 PRESFR OCNL LTGICCG DSNT E-S CB DSNT E-S MOV E VCSH P0004 T01890178
KLBB 151253Z 35008KT 5SM TSRA BR FEW049CB BKN065 OVC080 18/17 A2998 RMK AO2 LTG DSNT ALQDS RAB06 SLP104 FRQ LTGICCG ALQDS TS ALQDS MOV E P0004 T01830172
KLBB 151153Z COR 01011KT 10SM TS FEW045 OVC060CB 20/17 A2997 RMK AO2 LTG DSNT ALQDS TSB49 SLP098 CONS LTGICCG SW-NW-NE TS SW-NW-NE MOV NE T02000172 10233 20189 53017
KLBB 151053Z 05008KT 10SM FEW060 SCT085 BKN120 BKN150 19/17 A2995 RMK AO2 LTG DSNT N AND W SLP087 CONS LTGICCG DSNT SW-NW-NE CB DSNT SW-NW-NE MOV NE T01940172
KLBB 150953Z 07006KT 10SM FEW065 FEW085 SCT110 19/17 A2993 RMK AO2 SLP083 CONS LTGICCG DSNT W-N-NE CB DSNT W-N-NE MOV E T01940172
KLBB 150853Z 07009KT 10SM FEW070 FEW150 19/17 A2992 RMK AO2 SLP079 CONS LTGICCG DSNT W-N-NE CB DSNT W-N-NE MOV E T01940167 51009
KLBB 150753Z 04013KT 10SM FEW080 SCT120 BKN150 20/16 A2991 RMK AO2 PK WND 03028/0657 SLP075 CONS LTGICCG DSNT NW-NE CB DSNT NW-NE MOV SE T02000161